Strona główna
METAR-TAF:

METAR-TAF

Lotnisko :

Port lotniczy Wakkanai

Wakkanai, Japonia

Szerokość geograficzna: 45-24N, Długość geograficzna: 141-48E, wysokość: 8 m

Aktualna obserwacja pogody

Raport powstał 14 godziny i 27 minut temu, godzina 09:00 UTC
Wiatr 6 kt od zachodnio-południowy zachód
Temperatura 11°C
Wilgotność 82%
Ciśnienie 1011 hPa
Widzialność 10 km lub więcej
Mało chmury na wysokości 700 ft

METAR: RJCW 270900Z 25006KT 9999 FEW007 11/08 Q1011

czas: 08:27 (23:27 UTC)


TAF: brakujący

Obserwacja i prognoza pogody dla ponad 4000 lotnisk (raport METAR i TAF).

Dostępne stacje oznaczono żółtymi i czerwonymi punktami na mapie.

Najedź kursorem aby zobaczyć nazwę stacji.

Kliknij aby zobaczyć obserwacje i prognozy pogody.

Aby zmienić mapę: kliknij na zielony przycisk z czarnym krzyżykiem, aby powiększyć; na zielony przycisk z myślnikiem, aby pomniejszyć; na zielone strzałki, aby przejść do map sąsiednich.


METAR-TAF: